sensor_id;sensor_type;location;lat;lon;timestamp;P1;durP1;ratioP1;P2;durP2;ratioP2
22697;SDS011;11516;51.612;7.510;2023-05-07T00:01:32;0.60;;;0.60;;
22697;SDS011;11516;51.612;7.510;2023-05-07T00:03:58;0.88;;;0.80;;
22697;SDS011;11516;51.612;7.510;2023-05-07T00:06:23;0.65;;;0.65;;
22697;SDS011;11516;51.612;7.510;2023-05-07T00:08:50;0.95;;;0.85;;
22697;SDS011;11516;51.612;7.510;2023-05-07T00:11:16;0.60;;;0.60;;
22697;SDS011;11516;51.612;7.510;2023-05-07T00:13:41;0.40;;;0.40;;
22697;SDS011;11516;51.612;7.510;2023-05-07T00:16:07;0.93;;;0.93;;
22697;SDS011;11516;51.612;7.510;2023-05-07T00:18:32;0.93;;;0.93;;
22697;SDS011;11516;51.612;7.510;2023-05-07T00:20:58;1.90;;;0.70;;
22697;SDS011;11516;51.612;7.510;2023-05-07T00:23:23;1.80;;;1.60;;
22697;SDS011;11516;51.612;7.510;2023-05-07T00:25:49;0.80;;;0.80;;
22697;SDS011;11516;51.612;7.510;2023-05-07T00:28:15;0.77;;;0.77;;
22697;SDS011;11516;51.612;7.510;2023-05-07T00:30:40;1.20;;;0.93;;
22697;SDS011;11516;51.612;7.510;2023-05-07T00:33:06;2.53;;;0.85;;
22697;SDS011;11516;51.612;7.510;2023-05-07T00:35:31;0.93;;;0.93;;
22697;SDS011;11516;51.612;7.510;2023-05-07T00:37:57;0.57;;;0.57;;
22697;SDS011;11516;51.612;7.510;2023-05-07T00:40:22;0.75;;;0.75;;
22697;SDS011;11516;51.612;7.510;2023-05-07T00:42:48;0.40;;;0.40;;
22697;SDS011;11516;51.612;7.510;2023-05-07T00:45:14;0.60;;;0.37;;
22697;SDS011;11516;51.612;7.510;2023-05-07T00:47:42;0.35;;;0.35;;
22697;SDS011;11516;51.612;7.510;2023-05-07T00:50:08;1.20;;;1.20;;
22697;SDS011;11516;51.612;7.510;2023-05-07T00:52:35;0.80;;;0.80;;
22697;SDS011;11516;51.612;7.510;2023-05-07T00:55:03;0.93;;;0.93;;
22697;SDS011;11516;51.612;7.510;2023-05-07T00:57:33;0.40;;;0.40;;
22697;SDS011;11516;51.612;7.510;2023-05-07T01:00:04;0.88;;;0.88;;
22697;SDS011;11516;51.612;7.510;2023-05-07T01:02:30;0.70;;;0.70;;
22697;SDS011;11516;51.612;7.510;2023-05-07T01:04:56;1.00;;;0.90;;
22697;SDS011;11516;51.612;7.510;2023-05-07T01:07:22;0.70;;;0.70;;
22697;SDS011;11516;51.612;7.510;2023-05-07T01:09:48;1.13;;;0.93;;
22697;SDS011;11516;51.612;7.510;2023-05-07T01:12:14;1.13;;;1.03;;
22697;SDS011;11516;51.612;7.510;2023-05-07T01:14:40;1.10;;;1.00;;
22697;SDS011;11516;51.612;7.510;2023-05-07T01:17:06;0.98;;;0.88;;
22697;SDS011;11516;51.612;7.510;2023-05-07T01:19:33;1.05;;;0.68;;
22697;SDS011;11516;51.612;7.510;2023-05-07T01:22:08;0.85;;;0.85;;
22697;SDS011;11516;51.612;7.510;2023-05-07T01:24:36;1.50;;;1.03;;
22697;SDS011;11516;51.612;7.510;2023-05-07T01:27:02;0.45;;;0.45;;
22697;SDS011;11516;51.612;7.510;2023-05-07T01:29:28;0.80;;;0.70;;
22697;SDS011;11516;51.612;7.510;2023-05-07T01:31:56;0.73;;;0.73;;
22697;SDS011;11516;51.612;7.510;2023-05-07T01:34:23;0.77;;;0.77;;
22697;SDS011;11516;51.612;7.510;2023-05-07T01:36:52;0.50;;;0.43;;
22697;SDS011;11516;51.612;7.510;2023-05-07T01:39:20;1.60;;;0.70;;
22697;SDS011;11516;51.612;7.510;2023-05-07T01:41:46;0.80;;;0.80;;
22697;SDS011;11516;51.612;7.510;2023-05-07T01:44:12;0.85;;;0.52;;
22697;SDS011;11516;51.612;7.510;2023-05-07T01:46:38;0.80;;;0.63;;
22697;SDS011;11516;51.612;7.510;2023-05-07T01:49:03;2.20;;;0.57;;
22697;SDS011;11516;51.612;7.510;2023-05-07T01:51:29;0.68;;;0.52;;
22697;SDS011;11516;51.612;7.510;2023-05-07T01:53:56;0.82;;;0.80;;
22697;SDS011;11516;51.612;7.510;2023-05-07T01:56:22;0.40;;;0.40;;
22697;SDS011;11516;51.612;7.510;2023-05-07T01:58:50;3.53;;;1.00;;
22697;SDS011;11516;51.612;7.510;2023-05-07T02:01:16;0.45;;;0.45;;
22697;SDS011;11516;51.612;7.510;2023-05-07T02:03:42;0.73;;;0.73;;
22697;SDS011;11516;51.612;7.510;2023-05-07T02:06:07;0.60;;;0.60;;
22697;SDS011;11516;51.612;7.510;2023-05-07T02:08:33;0.43;;;0.40;;
22697;SDS011;11516;51.612;7.510;2023-05-07T02:10:58;0.47;;;0.47;;
22697;SDS011;11516;51.612;7.510;2023-05-07T02:13:24;0.80;;;0.80;;
22697;SDS011;11516;51.612;7.510;2023-05-07T02:15:51;0.38;;;0.38;;
22697;SDS011;11516;51.612;7.510;2023-05-07T02:18:18;1.40;;;0.80;;
22697;SDS011;11516;51.612;7.510;2023-05-07T02:20:44;0.40;;;0.40;;
22697;SDS011;11516;51.612;7.510;2023-05-07T02:23:09;2.13;;;1.15;;
22697;SDS011;11516;51.612;7.510;2023-05-07T02:25:35;2.13;;;0.95;;
22697;SDS011;11516;51.612;7.510;2023-05-07T02:28:00;1.60;;;1.00;;
22697;SDS011;11516;51.612;7.510;2023-05-07T02:30:26;0.98;;;0.88;;
22697;SDS011;11516;51.612;7.510;2023-05-07T02:32:51;0.70;;;0.60;;
22697;SDS011;11516;51.612;7.510;2023-05-07T02:35:17;1.83;;;1.60;;
22697;SDS011;11516;51.612;7.510;2023-05-07T02:37:42;2.47;;;1.60;;
22697;SDS011;11516;51.612;7.510;2023-05-07T02:40:08;0.80;;;0.80;;
22697;SDS011;11516;51.612;7.510;2023-05-07T02:42:34;1.98;;;1.48;;
22697;SDS011;11516;51.612;7.510;2023-05-07T02:45:00;1.20;;;1.10;;
22697;SDS011;11516;51.612;7.510;2023-05-07T02:47:25;0.60;;;0.50;;
22697;SDS011;11516;51.612;7.510;2023-05-07T02:49:54;1.30;;;0.85;;
22697;SDS011;11516;51.612;7.510;2023-05-07T02:52:20;2.13;;;1.40;;
22697;SDS011;11516;51.612;7.510;2023-05-07T02:54:46;0.80;;;0.80;;
22697;SDS011;11516;51.612;7.510;2023-05-07T02:57:11;1.33;;;1.17;;
22697;SDS011;11516;51.612;7.510;2023-05-07T02:59:37;0.40;;;0.40;;
22697;SDS011;11516;51.612;7.510;2023-05-07T03:02:02;1.10;;;1.10;;
22697;SDS011;11516;51.612;7.510;2023-05-07T03:04:28;1.17;;;1.10;;
22697;SDS011;11516;51.612;7.510;2023-05-07T03:06:53;1.33;;;0.80;;
22697;SDS011;11516;51.612;7.510;2023-05-07T03:09:19;1.05;;;1.05;;
22697;SDS011;11516;51.612;7.510;2023-05-07T03:11:45;1.47;;;0.83;;
22697;SDS011;11516;51.612;7.510;2023-05-07T03:14:10;1.80;;;1.20;;
22697;SDS011;11516;51.612;7.510;2023-05-07T03:16:36;0.50;;;0.50;;
22697;SDS011;11516;51.612;7.510;2023-05-07T03:19:02;1.65;;;1.17;;
22697;SDS011;11516;51.612;7.510;2023-05-07T03:21:27;1.23;;;1.20;;
22697;SDS011;11516;51.612;7.510;2023-05-07T03:23:53;1.60;;;1.20;;
22697;SDS011;11516;51.612;7.510;2023-05-07T03:26:18;1.13;;;0.90;;
22697;SDS011;11516;51.612;7.510;2023-05-07T03:28:45;0.60;;;0.50;;
22697;SDS011;11516;51.612;7.510;2023-05-07T03:31:10;0.90;;;0.90;;
22697;SDS011;11516;51.612;7.510;2023-05-07T03:33:38;0.93;;;0.93;;
22697;SDS011;11516;51.612;7.510;2023-05-07T03:36:14;0.40;;;0.40;;
22697;SDS011;11516;51.612;7.510;2023-05-07T03:38:40;0.53;;;0.53;;
22697;SDS011;11516;51.612;7.510;2023-05-07T03:41:05;2.20;;;1.10;;
22697;SDS011;11516;51.612;7.510;2023-05-07T03:43:31;1.77;;;1.30;;
22697;SDS011;11516;51.612;7.510;2023-05-07T03:45:56;0.80;;;0.80;;
22697;SDS011;11516;51.612;7.510;2023-05-07T03:48:22;1.90;;;0.80;;
22697;SDS011;11516;51.612;7.510;2023-05-07T03:50:48;2.40;;;0.90;;
22697;SDS011;11516;51.612;7.510;2023-05-07T03:53:13;9.40;;;1.13;;
22697;SDS011;11516;51.612;7.510;2023-05-07T03:55:39;1.88;;;1.17;;
22697;SDS011;11516;51.612;7.510;2023-05-07T03:58:05;0.93;;;0.90;;
22697;SDS011;11516;51.612;7.510;2023-05-07T04:00:30;0.43;;;0.28;;
22697;SDS011;11516;51.612;7.510;2023-05-07T04:02:58;0.70;;;0.70;;
22697;SDS011;11516;51.612;7.510;2023-05-07T04:05:24;1.67;;;0.97;;
22697;SDS011;11516;51.612;7.510;2023-05-07T04:07:49;0.50;;;0.50;;
22697;SDS011;11516;51.612;7.510;2023-05-07T04:10:15;0.98;;;0.98;;
22697;SDS011;11516;51.612;7.510;2023-05-07T04:12:42;1.40;;;0.90;;
22697;SDS011;11516;51.612;7.510;2023-05-07T04:15:10;0.88;;;0.88;;
22697;SDS011;11516;51.612;7.510;2023-05-07T04:17:38;3.85;;;1.20;;
22697;SDS011;11516;51.612;7.510;2023-05-07T04:20:05;1.52;;;1.45;;
22697;SDS011;11516;51.612;7.510;2023-05-07T04:22:33;1.10;;;0.90;;
22697;SDS011;11516;51.612;7.510;2023-05-07T04:24:58;0.77;;;0.77;;
22697;SDS011;11516;51.612;7.510;2023-05-07T04:27:25;0.45;;;0.45;;
22697;SDS011;11516;51.612;7.510;2023-05-07T04:29:51;0.70;;;0.70;;
22697;SDS011;11516;51.612;7.510;2023-05-07T04:32:20;1.40;;;1.00;;
22697;SDS011;11516;51.612;7.510;2023-05-07T04:34:46;1.80;;;1.30;;
22697;SDS011;11516;51.612;7.510;2023-05-07T04:37:11;3.00;;;0.80;;
22697;SDS011;11516;51.612;7.510;2023-05-07T04:39:37;1.80;;;1.70;;
22697;SDS011;11516;51.612;7.510;2023-05-07T04:42:02;1.30;;;1.20;;
22697;SDS011;11516;51.612;7.510;2023-05-07T04:44:28;1.20;;;1.20;;
22697;SDS011;11516;51.612;7.510;2023-05-07T04:46:55;0.98;;;0.98;;
22697;SDS011;11516;51.612;7.510;2023-05-07T04:49:21;0.87;;;0.83;;
22697;SDS011;11516;51.612;7.510;2023-05-07T04:51:47;0.73;;;0.73;;
22697;SDS011;11516;51.612;7.510;2023-05-07T04:54:12;0.68;;;0.68;;
22697;SDS011;11516;51.612;7.510;2023-05-07T04:56:38;1.50;;;1.40;;
22697;SDS011;11516;51.612;7.510;2023-05-07T04:59:03;0.75;;;0.75;;
22697;SDS011;11516;51.612;7.510;2023-05-07T05:01:29;1.63;;;1.38;;
22697;SDS011;11516;51.612;7.510;2023-05-07T05:03:55;5.15;;;1.27;;
22697;SDS011;11516;51.612;7.510;2023-05-07T05:06:20;1.03;;;1.03;;
22697;SDS011;11516;51.612;7.510;2023-05-07T05:08:46;0.77;;;0.77;;
22697;SDS011;11516;51.612;7.510;2023-05-07T05:11:11;1.13;;;1.13;;
22697;SDS011;11516;51.612;7.510;2023-05-07T05:13:37;0.87;;;0.87;;
22697;SDS011;11516;51.612;7.510;2023-05-07T05:16:02;2.10;;;1.10;;
22697;SDS011;11516;51.612;7.510;2023-05-07T05:18:28;1.60;;;1.50;;
22697;SDS011;11516;51.612;7.510;2023-05-07T05:20:53;1.03;;;0.80;;
22697;SDS011;11516;51.612;7.510;2023-05-07T05:23:19;1.30;;;1.20;;
22697;SDS011;11516;51.612;7.510;2023-05-07T05:25:45;2.13;;;1.33;;
22697;SDS011;11516;51.612;7.510;2023-05-07T05:28:10;2.63;;;0.97;;
22697;SDS011;11516;51.612;7.510;2023-05-07T05:30:36;1.40;;;0.80;;
22697;SDS011;11516;51.612;7.510;2023-05-07T05:33:01;0.67;;;0.67;;
22697;SDS011;11516;51.612;7.510;2023-05-07T05:35:27;0.70;;;0.70;;
22697;SDS011;11516;51.612;7.510;2023-05-07T05:37:52;0.67;;;0.67;;
22697;SDS011;11516;51.612;7.510;2023-05-07T05:40:18;1.13;;;1.02;;
22697;SDS011;11516;51.612;7.510;2023-05-07T05:42:44;0.57;;;0.57;;
22697;SDS011;11516;51.612;7.510;2023-05-07T05:45:09;1.35;;;1.25;;
22697;SDS011;11516;51.612;7.510;2023-05-07T05:47:37;0.93;;;0.93;;
22697;SDS011;11516;51.612;7.510;2023-05-07T05:50:03;1.15;;;1.05;;
22697;SDS011;11516;51.612;7.510;2023-05-07T05:52:30;1.25;;;1.10;;
22697;SDS011;11516;51.612;7.510;2023-05-07T05:54:56;2.70;;;1.87;;
22697;SDS011;11516;51.612;7.510;2023-05-07T05:57:21;1.23;;;1.13;;
22697;SDS011;11516;51.612;7.510;2023-05-07T05:59:47;4.37;;;1.03;;
22697;SDS011;11516;51.612;7.510;2023-05-07T06:02:13;0.80;;;0.80;;
22697;SDS011;11516;51.612;7.510;2023-05-07T06:04:39;0.55;;;0.55;;
22697;SDS011;11516;51.612;7.510;2023-05-07T06:07:04;1.50;;;1.40;;
22697;SDS011;11516;51.612;7.510;2023-05-07T06:09:30;0.60;;;0.60;;
22697;SDS011;11516;51.612;7.510;2023-05-07T06:11:55;1.40;;;0.70;;
22697;SDS011;11516;51.612;7.510;2023-05-07T06:14:21;2.20;;;1.40;;
22697;SDS011;11516;51.612;7.510;2023-05-07T06:16:47;0.97;;;0.77;;
22697;SDS011;11516;51.612;7.510;2023-05-07T06:19:12;0.90;;;0.90;;
22697;SDS011;11516;51.612;7.510;2023-05-07T06:21:38;0.60;;;0.60;;
22697;SDS011;11516;51.612;7.510;2023-05-07T06:24:04;1.40;;;1.05;;
22697;SDS011;11516;51.612;7.510;2023-05-07T06:26:30;0.25;;;0.22;;
22697;SDS011;11516;51.612;7.510;2023-05-07T06:28:55;1.10;;;1.00;;
22697;SDS011;11516;51.612;7.510;2023-05-07T06:31:21;1.50;;;1.40;;
22697;SDS011;11516;51.612;7.510;2023-05-07T06:33:46;1.90;;;1.50;;
22697;SDS011;11516;51.612;7.510;2023-05-07T06:36:13;1.58;;;1.48;;
22697;SDS011;11516;51.612;7.510;2023-05-07T06:38:38;1.50;;;1.40;;
22697;SDS011;11516;51.612;7.510;2023-05-07T06:41:05;0.93;;;0.53;;
22697;SDS011;11516;51.612;7.510;2023-05-07T06:43:31;1.80;;;1.48;;
22697;SDS011;11516;51.612;7.510;2023-05-07T06:45:56;2.43;;;2.23;;
22697;SDS011;11516;51.612;7.510;2023-05-07T06:48:22;2.23;;;1.30;;
22697;SDS011;11516;51.612;7.510;2023-05-07T06:50:47;2.30;;;1.63;;
22697;SDS011;11516;51.612;7.510;2023-05-07T06:53:13;1.90;;;1.73;;
22697;SDS011;11516;51.612;7.510;2023-05-07T06:55:38;1.80;;;1.70;;
22697;SDS011;11516;51.612;7.510;2023-05-07T06:58:04;3.80;;;2.00;;
22697;SDS011;11516;51.612;7.510;2023-05-07T07:00:30;0.65;;;0.65;;
22697;SDS011;11516;51.612;7.510;2023-05-07T07:02:56;1.03;;;1.03;;
22697;SDS011;11516;51.612;7.510;2023-05-07T07:05:22;0.97;;;0.97;;
22697;SDS011;11516;51.612;7.510;2023-05-07T07:07:47;1.27;;;1.23;;
22697;SDS011;11516;51.612;7.510;2023-05-07T07:10:18;2.70;;;1.92;;
22697;SDS011;11516;51.612;7.510;2023-05-07T07:12:47;3.20;;;1.83;;
22697;SDS011;11516;51.612;7.510;2023-05-07T07:15:13;4.30;;;2.10;;
22697;SDS011;11516;51.612;7.510;2023-05-07T07:17:40;2.00;;;1.70;;
22697;SDS011;11516;51.612;7.510;2023-05-07T07:20:05;4.55;;;1.70;;
22697;SDS011;11516;51.612;7.510;2023-05-07T07:22:32;1.97;;;1.77;;
22697;SDS011;11516;51.612;7.510;2023-05-07T07:24:57;3.73;;;2.10;;
22697;SDS011;11516;51.612;7.510;2023-05-07T07:27:23;1.57;;;1.23;;
22697;SDS011;11516;51.612;7.510;2023-05-07T07:29:48;1.70;;;1.57;;
22697;SDS011;11516;51.612;7.510;2023-05-07T07:32:14;2.33;;;1.40;;
22697;SDS011;11516;51.612;7.510;2023-05-07T07:34:39;0.90;;;0.90;;
22697;SDS011;11516;51.612;7.510;2023-05-07T07:37:05;2.40;;;1.17;;
22697;SDS011;11516;51.612;7.510;2023-05-07T07:39:34;1.38;;;1.38;;
22697;SDS011;11516;51.612;7.510;2023-05-07T07:42:00;2.70;;;1.63;;
22697;SDS011;11516;51.612;7.510;2023-05-07T07:46:53;1.40;;;1.27;;
22697;SDS011;11516;51.612;7.510;2023-05-07T07:49:18;0.68;;;0.68;;
22697;SDS011;11516;51.612;7.510;2023-05-07T07:51:44;3.40;;;3.10;;
22697;SDS011;11516;51.612;7.510;2023-05-07T07:54:09;2.60;;;1.98;;
22697;SDS011;11516;51.612;7.510;2023-05-07T07:56:35;1.10;;;1.10;;
22697;SDS011;11516;51.612;7.510;2023-05-07T07:59:00;2.70;;;1.65;;
22697;SDS011;11516;51.612;7.510;2023-05-07T08:01:26;1.52;;;1.42;;
22697;SDS011;11516;51.612;7.510;2023-05-07T08:03:54;1.40;;;1.30;;
22697;SDS011;11516;51.612;7.510;2023-05-07T08:06:20;1.98;;;0.98;;
22697;SDS011;11516;51.612;7.510;2023-05-07T08:08:45;2.10;;;1.83;;
22697;SDS011;11516;51.612;7.510;2023-05-07T08:11:11;1.02;;;1.02;;
22697;SDS011;11516;51.612;7.510;2023-05-07T08:13:36;3.30;;;2.47;;
22697;SDS011;11516;51.612;7.510;2023-05-07T08:16:03;1.55;;;1.45;;
22697;SDS011;11516;51.612;7.510;2023-05-07T08:18:29;1.23;;;1.17;;
22697;SDS011;11516;51.612;7.510;2023-05-07T08:20:55;0.70;;;0.70;;
22697;SDS011;11516;51.612;7.510;2023-05-07T08:23:21;0.85;;;0.85;;
22697;SDS011;11516;51.612;7.510;2023-05-07T08:25:47;1.57;;;1.47;;
22697;SDS011;11516;51.612;7.510;2023-05-07T08:28:14;1.52;;;1.42;;
22697;SDS011;11516;51.612;7.510;2023-05-07T08:30:39;3.28;;;2.38;;
22697;SDS011;11516;51.612;7.510;2023-05-07T08:33:05;3.50;;;1.23;;
22697;SDS011;11516;51.612;7.510;2023-05-07T08:35:31;0.87;;;0.87;;
22697;SDS011;11516;51.612;7.510;2023-05-07T08:37:57;0.80;;;0.80;;
22697;SDS011;11516;51.612;7.510;2023-05-07T08:40:25;3.17;;;1.90;;
22697;SDS011;11516;51.612;7.510;2023-05-07T08:42:54;1.77;;;1.60;;
22697;SDS011;11516;51.612;7.510;2023-05-07T08:45:21;1.73;;;1.63;;
22697;SDS011;11516;51.612;7.510;2023-05-07T08:47:51;1.15;;;1.15;;
22697;SDS011;11516;51.612;7.510;2023-05-07T08:50:20;2.63;;;2.42;;
22697;SDS011;11516;51.612;7.510;2023-05-07T08:52:47;1.00;;;1.00;;
22697;SDS011;11516;51.612;7.510;2023-05-07T08:55:13;1.30;;;1.20;;
22697;SDS011;11516;51.612;7.510;2023-05-07T08:57:38;1.13;;;1.13;;
22697;SDS011;11516;51.612;7.510;2023-05-07T09:00:04;2.00;;;1.33;;
22697;SDS011;11516;51.612;7.510;2023-05-07T09:02:32;2.30;;;1.98;;
22697;SDS011;11516;51.612;7.510;2023-05-07T09:04:59;1.63;;;1.23;;
22697;SDS011;11516;51.612;7.510;2023-05-07T09:07:25;1.73;;;1.63;;
22697;SDS011;11516;51.612;7.510;2023-05-07T09:09:51;0.90;;;0.80;;
22697;SDS011;11516;51.612;7.510;2023-05-07T09:12:17;1.23;;;1.17;;
22697;SDS011;11516;51.612;7.510;2023-05-07T09:14:44;1.00;;;0.70;;
22697;SDS011;11516;51.612;7.510;2023-05-07T09:17:10;1.23;;;1.23;;
22697;SDS011;11516;51.612;7.510;2023-05-07T09:19:36;2.30;;;1.80;;
22697;SDS011;11516;51.612;7.510;2023-05-07T09:22:03;1.70;;;1.15;;
22697;SDS011;11516;51.612;7.510;2023-05-07T09:24:29;1.55;;;1.45;;
22697;SDS011;11516;51.612;7.510;2023-05-07T09:26:59;0.87;;;0.83;;
22697;SDS011;11516;51.612;7.510;2023-05-07T09:29:26;1.38;;;1.33;;
22697;SDS011;11516;51.612;7.510;2023-05-07T09:31:54;1.27;;;1.27;;
22697;SDS011;11516;51.612;7.510;2023-05-07T09:34:20;1.58;;;1.48;;
22697;SDS011;11516;51.612;7.510;2023-05-07T09:36:45;2.60;;;1.23;;
22697;SDS011;11516;51.612;7.510;2023-05-07T09:39:11;1.83;;;1.20;;
22697;SDS011;11516;51.612;7.510;2023-05-07T09:41:44;1.15;;;1.13;;
22697;SDS011;11516;51.612;7.510;2023-05-07T09:44:14;0.57;;;0.57;;
22697;SDS011;11516;51.612;7.510;2023-05-07T09:46:42;3.30;;;1.10;;
22697;SDS011;11516;51.612;7.510;2023-05-07T09:49:11;1.75;;;1.35;;
22697;SDS011;11516;51.612;7.510;2023-05-07T09:51:49;1.63;;;1.45;;
22697;SDS011;11516;51.612;7.510;2023-05-07T09:54:16;2.20;;;1.17;;
22697;SDS011;11516;51.612;7.510;2023-05-07T09:56:45;1.80;;;1.70;;
22697;SDS011;11516;51.612;7.510;2023-05-07T09:59:13;0.70;;;0.70;;
22697;SDS011;11516;51.612;7.510;2023-05-07T10:01:40;2.10;;;1.55;;
22697;SDS011;11516;51.612;7.510;2023-05-07T10:04:07;2.80;;;1.75;;
22697;SDS011;11516;51.612;7.510;2023-05-07T10:06:33;1.90;;;1.70;;
22697;SDS011;11516;51.612;7.510;2023-05-07T10:09:00;1.30;;;1.20;;
22697;SDS011;11516;51.612;7.510;2023-05-07T10:11:26;1.23;;;1.10;;
22697;SDS011;11516;51.612;7.510;2023-05-07T10:13:52;1.60;;;1.50;;
22697;SDS011;11516;51.612;7.510;2023-05-07T10:16:18;1.20;;;1.20;;
22697;SDS011;11516;51.612;7.510;2023-05-07T10:18:44;1.80;;;1.65;;
22697;SDS011;11516;51.612;7.510;2023-05-07T10:21:11;0.88;;;0.88;;
22697;SDS011;11516;51.612;7.510;2023-05-07T10:23:44;1.50;;;1.40;;
22697;SDS011;11516;51.612;7.510;2023-05-07T10:26:13;2.83;;;1.73;;
22697;SDS011;11516;51.612;7.510;2023-05-07T10:28:41;3.05;;;1.88;;
22697;SDS011;11516;51.612;7.510;2023-05-07T10:34:16;14.65;;;12.10;;
22697;SDS011;11516;51.612;7.510;2023-05-07T10:36:47;11.35;;;10.10;;
22697;SDS011;11516;51.612;7.510;2023-05-07T10:39:15;13.45;;;10.10;;
22697;SDS011;11516;51.612;7.510;2023-05-07T10:41:40;10.93;;;9.83;;
22697;SDS011;11516;51.612;7.510;2023-05-07T10:44:06;10.77;;;9.70;;
22697;SDS011;11516;51.612;7.510;2023-05-07T10:46:31;11.38;;;10.27;;
22697;SDS011;11516;51.612;7.510;2023-05-07T10:51:25;12.37;;;10.70;;
22697;SDS011;11516;51.612;7.510;2023-05-07T10:56:42;13.48;;;11.20;;
22697;SDS011;11516;51.612;7.510;2023-05-07T11:01:55;11.13;;;9.70;;
22697;SDS011;11516;51.612;7.510;2023-05-07T11:04:22;13.10;;;10.43;;
22697;SDS011;11516;51.612;7.510;2023-05-07T11:12:16;9.82;;;8.82;;
22697;SDS011;11516;51.612;7.510;2023-05-07T11:14:42;10.07;;;8.85;;
22697;SDS011;11516;51.612;7.510;2023-05-07T11:17:09;10.38;;;8.30;;
22697;SDS011;11516;51.612;7.510;2023-05-07T11:19:51;11.30;;;10.07;;
22697;SDS011;11516;51.612;7.510;2023-05-07T11:25:04;11.00;;;9.90;;
22697;SDS011;11516;51.612;7.510;2023-05-07T11:27:31;11.32;;;9.40;;
22697;SDS011;11516;51.612;7.510;2023-05-07T11:29:57;11.57;;;9.63;;
22697;SDS011;11516;51.612;7.510;2023-05-07T11:32:30;13.30;;;9.33;;
22697;SDS011;11516;51.612;7.510;2023-05-07T11:34:57;10.25;;;7.97;;
22697;SDS011;11516;51.612;7.510;2023-05-07T11:37:25;11.15;;;10.05;;
22697;SDS011;11516;51.612;7.510;2023-05-07T11:40:01;10.82;;;9.35;;
22697;SDS011;11516;51.612;7.510;2023-05-07T11:42:35;10.75;;;7.97;;
22697;SDS011;11516;51.612;7.510;2023-05-07T11:45:05;7.75;;;6.68;;
22697;SDS011;11516;51.612;7.510;2023-05-07T11:47:32;8.70;;;7.35;;
22697;SDS011;11516;51.612;7.510;2023-05-07T11:50:07;8.10;;;6.90;;
22697;SDS011;11516;51.612;7.510;2023-05-07T11:52:33;7.90;;;7.03;;
22697;SDS011;11516;51.612;7.510;2023-05-07T11:55:00;7.72;;;7.00;;
22697;SDS011;11516;51.612;7.510;2023-05-07T11:57:28;8.10;;;6.82;;
22697;SDS011;11516;51.612;7.510;2023-05-07T11:59:54;10.47;;;6.63;;
22697;SDS011;11516;51.612;7.510;2023-05-07T12:02:20;6.57;;;5.95;;
22697;SDS011;11516;51.612;7.510;2023-05-07T12:04:46;6.88;;;6.18;;
22697;SDS011;11516;51.612;7.510;2023-05-07T12:07:12;7.27;;;5.97;;
22697;SDS011;11516;51.612;7.510;2023-05-07T12:09:38;6.63;;;5.63;;
22697;SDS011;11516;51.612;7.510;2023-05-07T12:12:08;7.55;;;6.80;;
22697;SDS011;11516;51.612;7.510;2023-05-07T12:14:37;7.68;;;6.97;;
22697;SDS011;11516;51.612;7.510;2023-05-07T12:17:04;7.03;;;6.30;;
22697;SDS011;11516;51.612;7.510;2023-05-07T12:19:30;15.27;;;13.68;;
22697;SDS011;11516;51.612;7.510;2023-05-07T12:21:56;9.10;;;6.53;;
22697;SDS011;11516;51.612;7.510;2023-05-07T12:24:22;8.07;;;6.75;;
22697;SDS011;11516;51.612;7.510;2023-05-07T12:26:48;9.43;;;6.95;;
22697;SDS011;11516;51.612;7.510;2023-05-07T12:29:14;7.07;;;6.10;;
22697;SDS011;11516;51.612;7.510;2023-05-07T12:31:40;6.90;;;6.20;;
22697;SDS011;11516;51.612;7.510;2023-05-07T12:34:06;6.20;;;5.60;;
22697;SDS011;11516;51.612;7.510;2023-05-07T12:36:41;6.97;;;6.03;;
22697;SDS011;11516;51.612;7.510;2023-05-07T12:39:07;7.40;;;6.70;;
22697;SDS011;11516;51.612;7.510;2023-05-07T12:41:52;7.00;;;6.30;;
22697;SDS011;11516;51.612;7.510;2023-05-07T12:44:19;7.38;;;6.60;;
22697;SDS011;11516;51.612;7.510;2023-05-07T12:46:47;9.43;;;7.07;;
22697;SDS011;11516;51.612;7.510;2023-05-07T12:49:13;7.47;;;6.60;;
22697;SDS011;11516;51.612;7.510;2023-05-07T12:51:38;8.57;;;6.80;;
22697;SDS011;11516;51.612;7.510;2023-05-07T12:54:04;6.97;;;6.07;;
22697;SDS011;11516;51.612;7.510;2023-05-07T12:59:38;6.55;;;5.25;;
22697;SDS011;11516;51.612;7.510;2023-05-07T13:02:05;5.68;;;5.07;;
22697;SDS011;11516;51.612;7.510;2023-05-07T13:04:31;5.32;;;4.80;;
22697;SDS011;11516;51.612;7.510;2023-05-07T13:06:58;6.40;;;5.07;;
22697;SDS011;11516;51.612;7.510;2023-05-07T13:09:24;6.95;;;5.28;;
22697;SDS011;11516;51.612;7.510;2023-05-07T13:11:50;7.47;;;5.60;;
22697;SDS011;11516;51.612;7.510;2023-05-07T13:14:15;5.40;;;4.90;;
22697;SDS011;11516;51.612;7.510;2023-05-07T13:16:41;7.05;;;5.32;;
22697;SDS011;11516;51.612;7.510;2023-05-07T13:19:06;8.57;;;5.93;;
22697;SDS011;11516;51.612;7.510;2023-05-07T13:21:32;5.53;;;5.00;;
22697;SDS011;11516;51.612;7.510;2023-05-07T13:23:58;5.30;;;4.80;;
22697;SDS011;11516;51.612;7.510;2023-05-07T13:26:23;6.82;;;5.32;;
22697;SDS011;11516;51.612;7.510;2023-05-07T13:28:49;6.57;;;5.88;;
22697;SDS011;11516;51.612;7.510;2023-05-07T13:31:15;7.47;;;6.00;;
22697;SDS011;11516;51.612;7.510;2023-05-07T13:33:42;6.55;;;5.88;;
22697;SDS011;11516;51.612;7.510;2023-05-07T13:36:07;7.10;;;6.40;;
22697;SDS011;11516;51.612;7.510;2023-05-07T13:38:33;8.38;;;6.20;;
22697;SDS011;11516;51.612;7.510;2023-05-07T13:40:58;7.63;;;6.50;;
22697;SDS011;11516;51.612;7.510;2023-05-07T13:43:24;7.17;;;6.10;;
22697;SDS011;11516;51.612;7.510;2023-05-07T13:45:50;9.33;;;6.40;;
22697;SDS011;11516;51.612;7.510;2023-05-07T13:48:15;9.80;;;7.87;;
22697;SDS011;11516;51.612;7.510;2023-05-07T13:50:41;7.13;;;6.43;;
22697;SDS011;11516;51.612;7.510;2023-05-07T13:53:07;9.23;;;6.72;;
22697;SDS011;11516;51.612;7.510;2023-05-07T13:55:33;8.82;;;7.03;;
22697;SDS011;11516;51.612;7.510;2023-05-07T13:57:59;7.33;;;6.63;;
22697;SDS011;11516;51.612;7.510;2023-05-07T14:00:26;7.55;;;6.20;;
22697;SDS011;11516;51.612;7.510;2023-05-07T14:02:52;6.78;;;6.07;;
22697;SDS011;11516;51.612;7.510;2023-05-07T14:05:19;9.32;;;6.30;;
22697;SDS011;11516;51.612;7.510;2023-05-07T14:07:44;7.00;;;5.80;;
22697;SDS011;11516;51.612;7.510;2023-05-07T14:10:10;6.77;;;6.10;;
22697;SDS011;11516;51.612;7.510;2023-05-07T14:12:36;6.75;;;6.15;;
22697;SDS011;11516;51.612;7.510;2023-05-07T14:15:02;8.40;;;6.03;;
22697;SDS011;11516;51.612;7.510;2023-05-07T14:17:28;7.38;;;6.05;;
22697;SDS011;11516;51.612;7.510;2023-05-07T14:19:54;6.97;;;6.10;;
22697;SDS011;11516;51.612;7.510;2023-05-07T14:22:20;7.83;;;6.67;;
22697;SDS011;11516;51.612;7.510;2023-05-07T14:24:46;8.20;;;6.03;;
22697;SDS011;11516;51.612;7.510;2023-05-07T14:27:12;9.23;;;7.00;;
22697;SDS011;11516;51.612;7.510;2023-05-07T14:29:38;7.53;;;6.67;;
22697;SDS011;11516;51.612;7.510;2023-05-07T14:32:03;7.93;;;6.90;;
22697;SDS011;11516;51.612;7.510;2023-05-07T14:34:29;7.50;;;6.40;;
22697;SDS011;11516;51.612;7.510;2023-05-07T14:36:54;7.53;;;6.53;;
22697;SDS011;11516;51.612;7.510;2023-05-07T14:39:21;7.85;;;6.60;;
22697;SDS011;11516;51.612;7.510;2023-05-07T14:41:46;6.70;;;5.67;;
22697;SDS011;11516;51.612;7.510;2023-05-07T14:44:12;6.70;;;6.00;;
22697;SDS011;11516;51.612;7.510;2023-05-07T14:46:38;9.10;;;6.30;;
22697;SDS011;11516;51.612;7.510;2023-05-07T14:49:03;7.88;;;5.82;;
22697;SDS011;11516;51.612;7.510;2023-05-07T14:51:29;6.95;;;5.57;;
22697;SDS011;11516;51.612;7.510;2023-05-07T14:53:55;6.83;;;6.13;;
22697;SDS011;11516;51.612;7.510;2023-05-07T14:56:21;8.73;;;6.63;;
22697;SDS011;11516;51.612;7.510;2023-05-07T14:58:47;8.30;;;6.33;;
22697;SDS011;11516;51.612;7.510;2023-05-07T15:01:16;7.78;;;6.35;;
22697;SDS011;11516;51.612;7.510;2023-05-07T15:03:41;8.13;;;6.73;;
22697;SDS011;11516;51.612;7.510;2023-05-07T15:06:07;8.00;;;6.13;;